createdAt,value
2022-10-18T00:03:18.398Z,5.68
2022-10-18T00:07:18.816Z,6.63
2022-10-18T00:11:20.108Z,5.75
2022-10-18T00:15:21.059Z,5.82
2022-10-18T00:23:26.508Z,5.75
2022-10-18T00:27:29.801Z,5.45
2022-10-18T00:31:31.596Z,6.70
2022-10-18T00:35:34.038Z,7.07
2022-10-18T00:39:35.219Z,7.50
2022-10-18T00:43:55.088Z,6.45
2022-10-18T00:47:59.917Z,6.53
2022-10-18T00:52:04.275Z,6.75
2022-10-18T00:56:05.345Z,6.75
2022-10-18T01:00:10.033Z,5.68
2022-10-18T01:04:10.979Z,5.72
2022-10-18T01:08:45.375Z,5.82
2022-10-18T01:13:24.827Z,5.55
2022-10-18T01:17:38.446Z,5.45
2022-10-18T01:22:07.366Z,5.28
2022-10-18T01:26:59.758Z,5.60
2022-10-18T01:31:16.703Z,5.35
2022-10-18T01:35:20.101Z,5.40
2022-10-18T01:39:25.194Z,6.47
2022-10-18T01:43:27.968Z,8.50
2022-10-18T01:47:31.089Z,7.60
2022-10-18T01:51:33.725Z,8.52
2022-10-18T01:55:44.265Z,7.85
2022-10-18T01:59:50.617Z,7.70
2022-10-18T02:04:23.211Z,7.80
2022-10-18T02:09:10.071Z,9.07
2022-10-18T02:13:15.313Z,8.05
2022-10-18T02:17:20.275Z,9.32
2022-10-18T02:21:23.419Z,9.02
2022-10-18T02:25:28.326Z,10.23
2022-10-18T02:29:29.594Z,10.15
2022-10-18T02:33:53.547Z,10.40
2022-10-18T02:38:00.556Z,10.43
2022-10-18T02:42:01.407Z,10.85
2022-10-18T02:46:03.221Z,11.00
2022-10-18T02:50:04.238Z,9.35
2022-10-18T02:58:05.128Z,9.75
2022-10-18T03:02:05.599Z,10.63
2022-10-18T03:06:06.223Z,10.38
2022-10-18T03:10:06.884Z,9.57
2022-10-18T03:14:07.141Z,9.68
2022-10-18T03:18:07.586Z,10.35
2022-10-18T03:22:08.827Z,10.50
2022-10-18T03:25:11.125Z,10.98
2022-10-18T03:28:59.033Z,9.90
2022-10-18T03:32:07.970Z,10.77
2022-10-18T03:35:17.351Z,11.68
2022-10-18T03:38:19.816Z,12.23
2022-10-18T03:41:24.282Z,12.63
2022-10-18T03:44:26.053Z,13.13
2022-10-18T03:47:28.033Z,11.20
2022-10-18T03:50:30.985Z,11.98
2022-10-18T03:53:32.632Z,12.05
2022-10-18T03:56:34.575Z,12.25
2022-10-18T03:59:37.242Z,11.48
2022-10-18T04:02:39.231Z,10.30
2022-10-18T04:05:40.876Z,10.63
2022-10-18T04:08:42.784Z,12.07
2022-10-18T04:11:44.736Z,11.00
2022-10-18T04:15:53.918Z,11.13
2022-10-18T04:19:54.309Z,11.13
2022-10-18T04:23:54.555Z,10.10
2022-10-18T04:27:54.774Z,10.73
2022-10-18T04:31:54.934Z,10.23
2022-10-18T04:35:55.176Z,10.47
2022-10-18T04:39:55.633Z,10.25
2022-10-18T04:43:55.821Z,11.65
2022-10-18T04:47:56.351Z,12.10
2022-10-18T04:51:56.648Z,11.35
2022-10-18T04:55:56.816Z,12.55
2022-10-18T04:59:57.771Z,13.15
2022-10-18T05:03:57.954Z,12.30
2022-10-18T05:07:58.377Z,12.30
2022-10-18T05:11:58.292Z,12.45
2022-10-18T05:16:00.382Z,12.50
2022-10-18T05:20:02.312Z,12.05
2022-10-18T05:24:02.711Z,12.23
2022-10-18T05:28:10.550Z,12.57
2022-10-18T05:32:16.394Z,12.55
2022-10-18T05:36:16.753Z,11.27
2022-10-18T05:40:17.258Z,11.70
2022-10-18T05:44:17.524Z,11.85
2022-10-18T05:48:17.961Z,11.27
2022-10-18T05:52:18.394Z,10.48
2022-10-18T05:56:18.643Z,9.98
2022-10-18T06:00:19.043Z,10.43
2022-10-18T06:04:19.471Z,9.95
2022-10-18T06:08:20.094Z,9.93
2022-10-18T06:12:20.687Z,9.45
2022-10-18T06:16:22.255Z,9.20
2022-10-18T06:20:22.788Z,9.25
2022-10-18T06:24:23.603Z,9.80
2022-10-18T06:28:24.448Z,9.80
2022-10-18T06:32:25.223Z,8.95
2022-10-18T06:36:25.844Z,10.18
2022-10-18T06:40:26.472Z,10.02
2022-10-18T06:44:26.899Z,10.10
2022-10-18T06:48:27.121Z,10.20
2022-10-18T06:52:27.687Z,9.95
2022-10-18T06:56:29.615Z,10.70
2022-10-18T07:00:30.070Z,9.48
2022-10-18T07:04:33.283Z,9.20
2022-10-18T07:08:34.121Z,8.85
2022-10-18T07:16:35.265Z,8.30
2022-10-18T07:24:37.008Z,8.17
2022-10-18T07:28:41.078Z,8.63
2022-10-18T07:32:41.461Z,8.30
2022-10-18T07:36:42.795Z,8.85
2022-10-18T07:40:43.174Z,9.35
2022-10-18T07:44:44.281Z,10.70
2022-10-18T07:48:44.701Z,11.23
2022-10-18T07:52:45.179Z,11.70
2022-10-18T07:56:46.176Z,11.18
2022-10-18T08:04:46.677Z,10.55
2022-10-18T08:08:48.116Z,10.40
2022-10-18T08:12:48.356Z,10.93
2022-10-18T08:15:50.525Z,12.40
2022-10-18T08:18:58.182Z,12.52
2022-10-18T08:23:00.324Z,14.75
2022-10-18T08:27:02.853Z,15.48
2022-10-18T08:31:04.194Z,16.30
2022-10-18T08:34:54.995Z,15.25
2022-10-18T08:41:34.695Z,16.10
2022-10-18T08:44:49.535Z,15.55
2022-10-18T08:47:56.690Z,15.73
2022-10-18T08:51:00.444Z,15.63
2022-10-18T08:54:26.747Z,14.38
2022-10-18T08:57:38.224Z,14.65
2022-10-18T09:01:26.880Z,15.23
2022-10-18T09:05:45.843Z,14.00
2022-10-18T09:09:28.111Z,13.50
2022-10-18T09:13:05.353Z,15.13
2022-10-18T09:16:15.423Z,14.60
2022-10-18T09:19:45.831Z,15.02
2022-10-18T09:23:20.091Z,15.63
2022-10-18T09:27:24.993Z,14.18
2022-10-18T09:31:43.935Z,14.38
2022-10-18T09:35:27.994Z,15.63
2022-10-18T09:38:34.772Z,15.57
2022-10-18T09:41:47.622Z,15.85
2022-10-18T09:45:22.495Z,16.25
2022-10-18T09:48:29.564Z,15.77
2022-10-18T09:51:36.764Z,16.13
2022-10-18T09:55:06.587Z,16.10
2022-10-18T09:58:13.945Z,15.70
2022-10-18T10:01:30.578Z,15.07
2022-10-18T10:05:31.199Z,14.70
2022-10-18T10:09:46.148Z,15.45
2022-10-18T10:13:48.548Z,14.23
2022-10-18T10:18:04.652Z,14.88
2022-10-18T10:22:06.604Z,13.07
2022-10-18T10:26:21.017Z,11.80
2022-10-18T10:30:40.411Z,10.10
2022-10-18T10:34:44.974Z,9.77
2022-10-18T10:39:11.974Z,10.77
2022-10-18T10:43:36.950Z,10.38
2022-10-18T10:47:37.870Z,10.68
2022-10-18T10:52:08.700Z,10.77
2022-10-18T10:56:45.204Z,9.48
2022-10-18T11:00:52.986Z,9.63
2022-10-18T11:04:55.915Z,9.82
2022-10-18T11:09:04.150Z,8.95
2022-10-18T11:13:23.851Z,8.32
2022-10-18T11:17:08.498Z,7.93
2022-10-18T11:20:43.141Z,10.38
2022-10-18T11:23:45.963Z,10.82
2022-10-18T11:27:14.858Z,10.77
2022-10-18T11:30:50.154Z,11.70
2022-10-18T11:34:14.551Z,12.15
2022-10-18T11:37:39.697Z,11.55
2022-10-18T11:40:49.368Z,12.75
2022-10-18T11:44:04.198Z,11.38
2022-10-18T11:47:17.070Z,10.15
2022-10-18T11:52:03.300Z,10.50
2022-10-18T11:56:21.324Z,9.25
2022-10-18T12:00:50.992Z,8.57
2022-10-18T12:09:39.474Z,10.02
2022-10-18T12:14:13.822Z,8.25
2022-10-18T12:18:19.328Z,8.85
2022-10-18T12:22:28.663Z,8.65
2022-10-18T12:26:33.269Z,7.80
2022-10-18T12:30:51.029Z,8.13
2022-10-18T12:35:24.372Z,7.88
2022-10-18T12:38:32.488Z,6.20
2022-10-18T12:42:25.413Z,6.82
2022-10-18T12:46:21.343Z,4.80
2022-10-18T12:50:39.282Z,3.58
2022-10-18T12:54:40.566Z,4.05
2022-10-18T12:58:53.091Z,3.60
2022-10-18T13:03:13.532Z,3.47
2022-10-18T13:07:22.231Z,3.85
2022-10-18T13:11:36.338Z,3.17
2022-10-18T13:16:25.072Z,3.28
2022-10-18T13:20:50.051Z,2.28
2022-10-18T13:25:17.532Z,2.10
2022-10-18T13:29:51.710Z,2.47
2022-10-18T13:34:17.830Z,2.42
2022-10-18T13:38:25.536Z,2.42
2022-10-18T13:42:32.372Z,2.92
2022-10-18T13:46:32.992Z,2.80
2022-10-18T13:50:42.525Z,3.33
2022-10-18T13:55:14.876Z,2.47
2022-10-18T13:59:39.283Z,2.35
2022-10-18T14:04:12.357Z,1.85
2022-10-18T14:12:45.094Z,1.83
2022-10-18T14:16:50.075Z,1.40
2022-10-18T14:21:27.404Z,1.60
2022-10-18T14:25:36.124Z,1.70
2022-10-18T14:29:36.799Z,1.90
2022-10-18T14:33:42.969Z,1.70
2022-10-18T14:37:46.915Z,1.17
2022-10-18T14:41:56.541Z,1.38
2022-10-18T14:46:08.098Z,1.30
2022-10-18T14:50:20.744Z,1.63
2022-10-18T14:54:30.773Z,1.80
2022-10-18T14:58:37.349Z,1.65
2022-10-18T15:02:38.499Z,1.48
2022-10-18T15:06:50.570Z,1.23
2022-10-18T15:10:51.193Z,1.15
2022-10-18T15:19:02.120Z,1.00
2022-10-18T15:23:24.103Z,1.00
2022-10-18T15:27:31.593Z,0.93
2022-10-18T15:31:37.451Z,1.02
2022-10-18T15:35:39.308Z,1.13
2022-10-18T15:39:39.555Z,1.20
2022-10-18T15:43:40.023Z,1.30
2022-10-18T15:47:40.540Z,1.38
2022-10-18T15:51:56.845Z,1.00
2022-10-18T15:55:59.644Z,1.20
2022-10-18T16:00:04.895Z,1.50
2022-10-18T16:04:20.177Z,1.17
2022-10-18T16:08:25.286Z,1.83
2022-10-18T16:12:25.553Z,1.40
2022-10-18T16:16:27.270Z,1.08
2022-10-18T16:20:27.915Z,1.10
2022-10-18T16:24:29.304Z,0.95
2022-10-18T16:28:32.919Z,1.25
2022-10-18T16:32:33.917Z,1.05
2022-10-18T16:36:38.267Z,1.10
2022-10-18T16:40:41.151Z,1.40
2022-10-18T16:44:43.193Z,1.30
2022-10-18T16:48:43.964Z,1.92
2022-10-18T16:52:44.419Z,1.20
2022-10-18T16:56:44.871Z,1.40
2022-10-18T17:00:46.930Z,1.13
2022-10-18T17:04:47.573Z,1.48
2022-10-18T17:08:48.906Z,1.23
2022-10-18T17:12:50.802Z,0.85
2022-10-18T17:16:54.823Z,1.13
2022-10-18T17:20:59.677Z,1.40
2022-10-18T17:25:01.533Z,1.25
2022-10-18T17:29:04.106Z,1.25
2022-10-18T17:33:08.375Z,1.63
2022-10-18T17:37:09.443Z,1.63
2022-10-18T17:41:10.667Z,1.70
2022-10-18T17:45:13.414Z,1.60
2022-10-18T17:49:16.233Z,1.67
2022-10-18T17:53:18.476Z,1.95
2022-10-18T17:57:18.826Z,1.95
2022-10-18T18:01:20.966Z,1.73
2022-10-18T18:05:24.404Z,1.98
2022-10-18T18:09:24.727Z,1.80
2022-10-18T18:13:25.173Z,3.28
2022-10-18T18:17:33.998Z,1.63
2022-10-18T18:21:35.617Z,1.40
2022-10-18T18:25:39.185Z,1.60
2022-10-18T18:29:39.856Z,1.65
2022-10-18T18:33:40.845Z,1.67
2022-10-18T18:37:41.499Z,1.92
2022-10-18T18:41:42.121Z,1.75
2022-10-18T18:45:49.782Z,2.75
2022-10-18T18:49:51.787Z,2.10
2022-10-18T18:53:55.208Z,1.88
2022-10-18T18:57:56.394Z,2.05
2022-10-18T19:06:10.273Z,1.83
2022-10-18T19:10:11.741Z,1.77
2022-10-18T19:14:13.351Z,2.53
2022-10-18T19:18:13.791Z,2.33
2022-10-18T19:22:14.997Z,2.33
2022-10-18T19:26:47.459Z,1.88
2022-10-18T19:30:50.098Z,2.13
2022-10-18T19:34:50.874Z,1.80
2022-10-18T19:38:51.372Z,1.60
2022-10-18T19:46:52.679Z,1.50
2022-10-18T19:50:52.766Z,1.75
2022-10-18T19:54:53.759Z,2.40
2022-10-18T19:58:54.572Z,2.00
2022-10-18T20:02:57.616Z,1.52
2022-10-18T20:07:00.311Z,1.92
2022-10-18T20:11:01.868Z,2.17
2022-10-18T20:15:02.425Z,2.13
2022-10-18T20:19:04.495Z,1.92
2022-10-18T20:23:04.989Z,2.22
2022-10-18T20:27:09.497Z,2.28
2022-10-18T20:31:18.336Z,2.13
2022-10-18T20:35:18.774Z,2.35
2022-10-18T20:39:18.993Z,2.13
2022-10-18T20:43:19.095Z,2.50
2022-10-18T20:47:19.310Z,2.50
2022-10-18T20:51:19.955Z,2.17
2022-10-18T20:55:20.195Z,2.10
2022-10-18T20:59:20.353Z,2.20
2022-10-18T21:03:20.547Z,2.40
2022-10-18T21:12:36.680Z,2.10
2022-10-18T21:16:37.463Z,2.70
2022-10-18T21:20:37.684Z,2.20
2022-10-18T21:24:37.940Z,3.00
2022-10-18T21:28:38.118Z,2.30
2022-10-18T21:32:39.271Z,2.38
2022-10-18T21:36:40.079Z,2.50
2022-10-18T21:40:44.472Z,2.38
2022-10-18T21:44:48.863Z,2.40
2022-10-18T21:48:50.363Z,2.33
2022-10-18T21:52:50.780Z,2.63
2022-10-18T21:56:51.750Z,2.40
2022-10-18T22:00:51.913Z,2.63
2022-10-18T22:04:53.211Z,2.87
2022-10-18T22:08:54.857Z,2.70
2022-10-18T22:12:55.596Z,2.70
2022-10-18T22:16:59.354Z,3.08
2022-10-18T22:21:01.546Z,2.78
2022-10-18T22:25:06.431Z,2.78
2022-10-18T22:29:14.164Z,2.17
2022-10-18T22:33:14.443Z,2.65
2022-10-18T22:37:14.850Z,2.80
2022-10-18T22:41:15.273Z,2.88
2022-10-18T22:45:15.660Z,2.70
2022-10-18T22:49:15.864Z,2.90
2022-10-18T22:53:16.225Z,2.53
2022-10-18T22:57:18.000Z,2.88
2022-10-18T23:01:20.133Z,2.78
2022-10-18T23:05:20.814Z,2.45
2022-10-18T23:09:21.266Z,2.50
2022-10-18T23:13:22.422Z,3.38
2022-10-18T23:21:24.510Z,2.50
2022-10-18T23:25:24.844Z,2.60
2022-10-18T23:29:24.968Z,2.47
2022-10-18T23:33:25.369Z,2.80
2022-10-18T23:37:25.877Z,3.67
2022-10-18T23:41:27.263Z,2.83
2022-10-18T23:45:27.580Z,2.65
2022-10-18T23:49:27.837Z,3.73
2022-10-18T23:53:28.878Z,2.60
2022-10-18T23:57:29.217Z,2.88
